createdAt,value
2024-03-16T00:00:20.239Z,1.20
2024-03-16T00:03:07.755Z,1.20
2024-03-16T00:05:55.485Z,1.47
2024-03-16T00:08:44.220Z,1.15
2024-03-16T00:11:32.787Z,1.70
2024-03-16T00:14:20.362Z,1.50
2024-03-16T00:17:07.842Z,1.90
2024-03-16T00:19:56.164Z,2.58
2024-03-16T00:22:43.422Z,3.47
2024-03-16T00:25:30.968Z,3.20
2024-03-16T00:28:18.315Z,3.83
2024-03-16T00:31:07.359Z,3.17
2024-03-16T00:33:55.150Z,3.62
2024-03-16T00:36:42.831Z,3.00
2024-03-16T00:39:30.646Z,3.33
2024-03-16T00:42:17.968Z,3.08
2024-03-16T00:45:05.710Z,2.65
2024-03-16T00:47:53.401Z,2.65
2024-03-16T00:50:41.465Z,2.90
2024-03-16T00:53:29.339Z,2.75
2024-03-16T00:56:16.685Z,2.87
2024-03-16T00:59:04.356Z,2.70
2024-03-16T01:01:53.431Z,2.27
2024-03-16T01:04:41.009Z,2.40
2024-03-16T01:07:28.343Z,2.33
2024-03-16T01:10:16.096Z,2.80
2024-03-16T01:13:03.655Z,2.20
2024-03-16T01:15:52.039Z,2.60
2024-03-16T01:18:41.410Z,2.20
2024-03-16T01:21:29.034Z,2.20
2024-03-16T01:24:16.563Z,2.10
2024-03-16T01:27:04.558Z,2.20
2024-03-16T01:29:52.423Z,2.40
2024-03-16T01:32:40.192Z,2.15
2024-03-16T01:35:27.716Z,2.27
2024-03-16T01:38:15.356Z,2.27
2024-03-16T01:41:03.219Z,2.50
2024-03-16T01:43:51.110Z,2.50
2024-03-16T01:46:42.820Z,2.60
2024-03-16T01:49:30.555Z,2.77
2024-03-16T01:52:18.084Z,2.37
2024-03-16T01:55:05.996Z,2.47
2024-03-16T01:57:53.419Z,2.58
2024-03-16T02:00:42.787Z,2.60
2024-03-16T02:03:30.421Z,2.58
2024-03-16T02:06:18.622Z,2.80
2024-03-16T02:09:07.637Z,2.30
2024-03-16T02:11:55.023Z,2.62
2024-03-16T02:14:43.444Z,2.85
2024-03-16T02:17:30.541Z,2.77
2024-03-16T02:20:18.020Z,2.87
2024-03-16T02:23:05.546Z,2.80
2024-03-16T02:25:53.189Z,3.15
2024-03-16T02:28:40.344Z,2.65
2024-03-16T02:31:29.891Z,3.15
2024-03-16T02:34:17.763Z,3.75
2024-03-16T02:37:06.303Z,3.05
2024-03-16T02:39:53.974Z,3.30
2024-03-16T02:42:44.019Z,2.85
2024-03-16T02:45:32.887Z,3.80
2024-03-16T02:48:20.585Z,4.12
2024-03-16T02:51:08.345Z,3.30
2024-03-16T02:53:57.650Z,3.25
2024-03-16T02:56:45.778Z,3.33
2024-03-16T02:59:33.038Z,3.40
2024-03-16T03:02:22.013Z,3.65
2024-03-16T03:05:10.788Z,3.22
2024-03-16T03:07:58.140Z,3.75
2024-03-16T03:10:45.648Z,3.98
2024-03-16T03:13:32.958Z,3.87
2024-03-16T03:16:25.141Z,4.20
2024-03-16T03:19:12.790Z,3.60
2024-03-16T03:22:00.606Z,3.30
2024-03-16T03:24:48.118Z,4.00
2024-03-16T03:27:35.971Z,3.90
2024-03-16T03:30:23.647Z,3.27
2024-03-16T03:33:11.973Z,3.35
2024-03-16T03:36:01.584Z,3.37
2024-03-16T03:38:49.379Z,3.10
2024-03-16T03:41:36.689Z,3.55
2024-03-16T03:44:26.154Z,3.17
2024-03-16T03:47:13.627Z,3.30
2024-03-16T03:50:00.866Z,3.00
2024-03-16T03:52:48.314Z,2.85
2024-03-16T03:55:36.454Z,3.02
2024-03-16T03:58:24.255Z,3.75
2024-03-16T04:01:11.819Z,3.77
2024-03-16T04:04:00.410Z,3.50
2024-03-16T04:06:48.274Z,3.27
2024-03-16T04:09:36.033Z,3.47
2024-03-16T04:12:23.725Z,3.17
2024-03-16T04:15:10.984Z,2.95
2024-03-16T04:17:58.474Z,3.42
2024-03-16T04:20:45.662Z,2.70
2024-03-16T04:23:33.285Z,3.52
2024-03-16T04:26:20.947Z,3.40
2024-03-16T04:29:08.202Z,3.40
2024-03-16T04:31:55.837Z,3.67
2024-03-16T04:34:43.368Z,4.17
2024-03-16T04:37:30.879Z,3.62
2024-03-16T04:40:18.465Z,3.55
2024-03-16T04:43:05.850Z,3.92
2024-03-16T04:45:53.387Z,3.85
2024-03-16T04:48:40.823Z,3.62
2024-03-16T04:51:28.442Z,3.87
2024-03-16T04:54:15.787Z,3.55
2024-03-16T04:57:03.391Z,4.10
2024-03-16T04:59:51.033Z,4.00
2024-03-16T05:02:38.332Z,4.37
2024-03-16T05:05:26.256Z,4.10
2024-03-16T05:08:13.861Z,4.00
2024-03-16T05:11:01.498Z,4.10
2024-03-16T05:13:48.692Z,3.60
2024-03-16T05:16:37.677Z,3.50
2024-03-16T05:19:26.733Z,3.50
2024-03-16T05:22:13.919Z,3.85
2024-03-16T05:25:01.380Z,3.90
2024-03-16T05:27:48.768Z,3.85
2024-03-16T05:30:36.643Z,3.60
2024-03-16T05:33:24.540Z,3.87
2024-03-16T05:36:13.537Z,3.55
2024-03-16T05:39:00.874Z,3.67
2024-03-16T05:41:49.314Z,3.33
2024-03-16T05:44:36.915Z,3.92
2024-03-16T05:47:24.264Z,3.27
2024-03-16T05:50:12.036Z,3.90
2024-03-16T05:52:59.604Z,3.60
2024-03-16T05:55:47.036Z,3.17
2024-03-16T05:58:34.696Z,3.55
2024-03-16T06:01:23.033Z,3.45
2024-03-16T06:04:10.458Z,3.52
2024-03-16T06:06:57.774Z,3.25
2024-03-16T06:09:45.325Z,3.35
2024-03-16T06:12:33.253Z,3.22
2024-03-16T06:15:20.651Z,3.00
2024-03-16T06:18:08.354Z,3.20
2024-03-16T06:20:55.885Z,2.77
2024-03-16T06:23:43.741Z,2.65
2024-03-16T06:26:33.092Z,2.58
2024-03-16T06:29:22.014Z,3.05
2024-03-16T06:32:10.219Z,2.75
2024-03-16T06:34:58.112Z,2.80
2024-03-16T06:37:45.667Z,3.42
2024-03-16T06:40:33.326Z,2.58
2024-03-16T06:43:20.992Z,3.20
2024-03-16T06:46:10.607Z,2.47
2024-03-16T06:48:58.273Z,2.60
2024-03-16T06:51:45.842Z,2.62
2024-03-16T06:54:34.082Z,2.83
2024-03-16T06:57:21.895Z,2.60
2024-03-16T07:00:12.597Z,3.02
2024-03-16T07:03:00.240Z,2.50
2024-03-16T07:05:47.591Z,2.05
2024-03-16T07:08:35.361Z,1.80
2024-03-16T07:11:23.216Z,1.75
2024-03-16T07:14:10.685Z,2.20
2024-03-16T07:16:58.344Z,1.80
2024-03-16T07:19:46.107Z,1.90
2024-03-16T07:22:33.424Z,2.00
2024-03-16T07:25:21.722Z,2.00
2024-03-16T07:28:09.610Z,2.22
2024-03-16T07:30:58.709Z,2.30
2024-03-16T07:33:47.183Z,2.10
2024-03-16T07:36:34.745Z,2.30
2024-03-16T07:39:22.726Z,3.08
2024-03-16T07:42:11.153Z,2.98
2024-03-16T07:44:58.579Z,2.40
2024-03-16T07:47:45.994Z,2.50
2024-03-16T07:50:33.706Z,2.40
2024-03-16T07:53:21.675Z,2.20
2024-03-16T07:56:10.565Z,2.12
2024-03-16T07:59:01.577Z,2.37
2024-03-16T08:01:48.899Z,1.95
2024-03-16T08:04:45.524Z,1.70
2024-03-16T08:07:32.959Z,1.35
2024-03-16T08:10:23.714Z,1.45
2024-03-16T08:13:11.387Z,1.20
2024-03-16T08:16:00.488Z,1.15
2024-03-16T08:18:48.095Z,1.07
2024-03-16T08:21:37.194Z,1.22
2024-03-16T08:24:24.445Z,1.02
2024-03-16T08:27:14.089Z,1.20
2024-03-16T08:30:01.068Z,1.12
2024-03-16T08:32:48.470Z,1.20
2024-03-16T08:35:36.151Z,1.20
2024-03-16T08:38:25.253Z,1.10
2024-03-16T08:41:12.384Z,1.00
2024-03-16T08:43:59.934Z,1.20
2024-03-16T08:46:47.683Z,0.90
2024-03-16T08:49:36.201Z,1.10
2024-03-16T08:52:25.511Z,1.15
2024-03-16T08:55:15.064Z,1.05
2024-03-16T08:58:02.857Z,1.12
2024-03-16T09:00:50.695Z,1.12
2024-03-16T09:03:38.033Z,0.78
2024-03-16T09:06:25.557Z,0.80
2024-03-16T09:09:12.942Z,0.88
2024-03-16T09:12:00.556Z,0.82
2024-03-16T09:14:48.101Z,0.95
2024-03-16T09:17:36.066Z,1.10
2024-03-16T09:20:23.606Z,0.82
2024-03-16T09:23:11.269Z,1.00
2024-03-16T09:25:58.704Z,0.80
2024-03-16T09:28:46.232Z,0.78
2024-03-16T09:31:33.711Z,0.80
2024-03-16T09:34:21.530Z,0.80
2024-03-16T09:37:10.097Z,0.60
2024-03-16T09:39:58.389Z,0.60
2024-03-16T09:42:45.899Z,0.53
2024-03-16T09:45:33.732Z,0.80
2024-03-16T09:48:25.321Z,0.70
2024-03-16T09:51:17.913Z,0.50
2024-03-16T09:54:07.345Z,0.23
2024-03-16T09:56:54.968Z,0.30
2024-03-16T09:59:47.890Z,0.30
2024-03-16T10:02:36.971Z,0.28
2024-03-16T10:05:24.371Z,0.20
2024-03-16T10:08:13.642Z,0.20
2024-03-16T10:11:14.249Z,0.30
2024-03-16T10:14:03.709Z,0.30
2024-03-16T10:16:51.278Z,0.30
2024-03-16T10:19:38.400Z,0.30
2024-03-16T10:22:25.722Z,0.40
2024-03-16T10:25:14.671Z,0.50
2024-03-16T10:28:01.873Z,0.75
2024-03-16T10:30:49.287Z,0.68
2024-03-16T10:33:39.514Z,1.00
2024-03-16T10:36:28.235Z,1.25
2024-03-16T10:39:17.179Z,1.10
2024-03-16T10:42:06.362Z,1.70
2024-03-16T10:44:56.470Z,1.60
2024-03-16T10:47:44.170Z,1.52
2024-03-16T10:50:31.518Z,1.30
2024-03-16T10:53:20.886Z,1.52
2024-03-16T10:56:08.392Z,1.40
2024-03-16T10:58:56.817Z,1.52
2024-03-16T11:01:44.164Z,1.70
2024-03-16T11:04:31.784Z,1.90
2024-03-16T11:07:19.396Z,1.67
2024-03-16T11:10:10.248Z,1.30
2024-03-16T11:13:02.925Z,1.22
2024-03-16T11:15:50.695Z,1.20
2024-03-16T11:18:41.558Z,1.10
2024-03-16T11:21:32.178Z,1.30
2024-03-16T11:24:20.116Z,1.22
2024-03-16T11:27:11.679Z,1.60
2024-03-16T11:30:01.868Z,1.32
2024-03-16T11:32:49.598Z,0.98
2024-03-16T11:35:37.848Z,1.30
2024-03-16T11:38:25.447Z,1.20
2024-03-16T11:41:12.969Z,1.10
2024-03-16T11:44:00.318Z,1.20
2024-03-16T11:46:49.538Z,1.32
2024-03-16T11:49:38.989Z,1.35
2024-03-16T11:52:26.768Z,1.00
2024-03-16T11:55:14.621Z,1.47
2024-03-16T11:58:02.140Z,1.30
2024-03-16T12:00:52.673Z,1.30
2024-03-16T12:03:41.912Z,1.20
2024-03-16T12:06:29.603Z,1.30
2024-03-16T12:09:18.800Z,0.90
2024-03-16T12:12:08.936Z,1.10
2024-03-16T12:15:18.225Z,1.00
2024-03-16T12:18:06.942Z,1.22
2024-03-16T12:20:58.014Z,1.00
2024-03-16T12:23:47.420Z,1.10
2024-03-16T12:26:34.987Z,0.80
2024-03-16T12:29:22.980Z,0.90
2024-03-16T12:32:11.713Z,1.10
2024-03-16T12:34:59.804Z,0.90
2024-03-16T12:37:47.072Z,0.62
2024-03-16T12:40:35.595Z,0.75
2024-03-16T12:43:24.032Z,1.42
2024-03-16T12:46:11.574Z,1.00
2024-03-16T12:48:59.433Z,1.00
2024-03-16T12:51:47.614Z,1.00
2024-03-16T12:54:37.532Z,1.27
2024-03-16T12:57:24.041Z,0.88
2024-03-16T13:00:12.376Z,0.88
2024-03-16T13:03:00.277Z,0.80
2024-03-16T13:05:47.553Z,1.00
2024-03-16T13:08:34.874Z,1.12
2024-03-16T13:11:24.738Z,1.02
2024-03-16T13:14:12.318Z,1.10
2024-03-16T13:16:59.762Z,0.70
2024-03-16T13:19:48.486Z,0.80
2024-03-16T13:22:36.150Z,0.80
2024-03-16T13:25:24.231Z,0.88
2024-03-16T13:28:12.446Z,0.93
2024-03-16T13:31:00.059Z,0.80
2024-03-16T13:33:47.639Z,0.70
2024-03-16T13:36:36.343Z,0.70
2024-03-16T13:39:25.555Z,0.93
2024-03-16T13:42:14.326Z,0.90
2024-03-16T13:45:01.960Z,0.82
2024-03-16T13:47:49.686Z,0.88
2024-03-16T13:50:37.450Z,0.88
2024-03-16T13:53:26.719Z,0.90
2024-03-16T13:56:13.961Z,1.00
2024-03-16T13:59:01.475Z,1.15
2024-03-16T14:01:50.737Z,1.00
2024-03-16T14:04:38.242Z,0.80
2024-03-16T14:07:25.579Z,0.70
2024-03-16T14:10:18.647Z,0.95
2024-03-16T14:13:06.102Z,0.80
2024-03-16T14:15:54.702Z,0.82
2024-03-16T14:18:42.392Z,0.60
2024-03-16T14:21:29.983Z,1.10
2024-03-16T14:24:17.529Z,1.20
2024-03-16T14:27:05.666Z,1.15
2024-03-16T14:29:53.157Z,1.00
2024-03-16T14:32:42.092Z,1.02
2024-03-16T14:35:29.472Z,1.20
2024-03-16T14:38:16.912Z,1.00
2024-03-16T14:41:05.508Z,1.00
2024-03-16T14:43:53.536Z,0.90
2024-03-16T14:46:40.903Z,1.00
2024-03-16T14:49:29.366Z,1.00
2024-03-16T14:52:16.654Z,0.70
2024-03-16T14:55:06.138Z,0.75
2024-03-16T14:57:54.233Z,1.00
2024-03-16T15:00:41.731Z,1.00
2024-03-16T15:03:29.052Z,0.95
2024-03-16T15:06:16.599Z,1.07
2024-03-16T15:09:05.814Z,1.37
2024-03-16T15:11:53.320Z,1.25
2024-03-16T15:14:41.319Z,1.15
2024-03-16T15:17:28.706Z,1.10
2024-03-16T15:20:16.335Z,1.15
2024-03-16T15:23:03.929Z,1.27
2024-03-16T15:26:04.912Z,1.40
2024-03-16T15:28:53.773Z,1.10
2024-03-16T15:31:41.305Z,1.10
2024-03-16T15:34:28.648Z,1.00
2024-03-16T15:37:16.727Z,0.90
2024-03-16T15:40:07.539Z,0.93
2024-03-16T15:42:55.744Z,1.10
2024-03-16T15:45:43.237Z,1.00
2024-03-16T15:48:30.724Z,1.10
2024-03-16T15:51:18.087Z,1.30
2024-03-16T15:54:05.670Z,1.60
2024-03-16T15:56:52.982Z,1.27
2024-03-16T15:59:40.798Z,1.47
2024-03-16T16:02:28.173Z,1.32
2024-03-16T16:05:16.462Z,1.40
2024-03-16T16:08:04.148Z,1.50
2024-03-16T16:10:51.786Z,1.62
2024-03-16T16:13:39.329Z,1.42
2024-03-16T16:16:26.961Z,1.50
2024-03-16T16:19:14.663Z,1.65
2024-03-16T16:22:02.007Z,1.20
2024-03-16T16:24:53.111Z,1.37
2024-03-16T16:27:39.741Z,1.17
2024-03-16T16:30:27.265Z,1.35
2024-03-16T16:33:14.410Z,1.50
2024-03-16T16:36:02.799Z,1.55
2024-03-16T16:38:49.859Z,1.60
2024-03-16T16:41:37.451Z,1.50
2024-03-16T16:44:25.305Z,1.57
2024-03-16T16:47:17.438Z,1.20
2024-03-16T16:50:05.060Z,1.37
2024-03-16T16:52:52.379Z,1.60
2024-03-16T16:55:42.794Z,1.37
2024-03-16T16:58:31.979Z,1.47
2024-03-16T17:01:19.302Z,1.45
2024-03-16T17:04:08.434Z,1.90
2024-03-16T17:06:55.889Z,1.70
2024-03-16T17:09:43.389Z,2.00
2024-03-16T17:12:30.733Z,1.60
2024-03-16T17:15:19.253Z,1.82
2024-03-16T17:18:06.863Z,1.80
2024-03-16T17:20:54.360Z,1.92
2024-03-16T17:23:41.890Z,1.82
2024-03-16T17:26:30.941Z,1.82
2024-03-16T17:29:18.472Z,2.27
2024-03-16T17:32:07.748Z,2.50
2024-03-16T17:34:56.791Z,1.80
2024-03-16T17:37:44.485Z,1.67
2024-03-16T17:40:31.981Z,1.62
2024-03-16T17:43:19.636Z,1.82
2024-03-16T17:46:06.646Z,1.52
2024-03-16T17:48:54.425Z,1.67
2024-03-16T17:51:44.013Z,1.80
2024-03-16T17:54:31.781Z,1.75
2024-03-16T17:57:19.895Z,1.82
2024-03-16T18:00:08.901Z,1.62
2024-03-16T18:02:56.147Z,1.80
2024-03-16T18:05:45.072Z,2.00
2024-03-16T18:08:33.889Z,1.90
2024-03-16T18:11:21.117Z,1.62
2024-03-16T18:14:08.513Z,2.22
2024-03-16T18:16:56.119Z,2.47
2024-03-16T18:19:43.413Z,2.70
2024-03-16T18:22:30.976Z,2.40
2024-03-16T18:25:18.277Z,2.12
2024-03-16T18:28:06.924Z,1.92
2024-03-16T18:30:54.632Z,2.37
2024-03-16T18:33:44.154Z,2.52
2024-03-16T18:36:31.154Z,2.62
2024-03-16T18:39:19.052Z,2.58
2024-03-16T18:42:08.412Z,2.42
2024-03-16T18:44:55.886Z,2.42
2024-03-16T18:47:43.487Z,2.70
2024-03-16T18:50:33.932Z,2.50
2024-03-16T18:53:21.673Z,2.10
2024-03-16T18:56:10.881Z,1.87
2024-03-16T18:58:58.309Z,1.92
2024-03-16T19:01:47.187Z,1.72
2024-03-16T19:04:34.781Z,1.95
2024-03-16T19:07:22.921Z,2.00
2024-03-16T19:10:11.157Z,1.87
2024-03-16T19:12:59.036Z,2.30
2024-03-16T19:15:50.841Z,1.92
2024-03-16T19:18:38.014Z,2.22
2024-03-16T19:21:27.024Z,2.37
2024-03-16T19:24:14.649Z,3.05
2024-03-16T19:27:03.048Z,3.50
2024-03-16T19:29:50.321Z,5.17
2024-03-16T19:32:38.004Z,5.33
2024-03-16T19:35:25.602Z,5.08
2024-03-16T19:38:14.849Z,3.08
2024-03-16T19:41:02.666Z,2.90
2024-03-16T19:43:51.097Z,2.83
2024-03-16T19:46:38.983Z,2.85
2024-03-16T19:49:26.412Z,3.00
2024-03-16T19:52:14.490Z,3.22
2024-03-16T19:55:02.106Z,3.02
2024-03-16T19:57:49.853Z,4.72
2024-03-16T20:00:38.515Z,3.10
2024-03-16T20:03:28.420Z,3.17
2024-03-16T20:06:15.661Z,3.77
2024-03-16T20:09:03.508Z,3.87
2024-03-16T20:11:52.811Z,3.17
2024-03-16T20:14:41.623Z,2.75
2024-03-16T20:17:28.950Z,3.22
2024-03-16T20:20:18.239Z,2.67
2024-03-16T20:23:05.824Z,3.40
2024-03-16T20:25:53.103Z,3.52
2024-03-16T20:28:40.377Z,3.75
2024-03-16T20:31:27.918Z,3.08
2024-03-16T20:34:15.682Z,2.98
2024-03-16T20:37:03.166Z,3.20
2024-03-16T20:39:51.810Z,3.27
2024-03-16T20:42:39.619Z,3.02
2024-03-16T20:45:27.214Z,3.35
2024-03-16T20:48:16.203Z,2.95
2024-03-16T20:51:10.372Z,3.25
2024-03-16T20:53:57.633Z,3.60
2024-03-16T20:56:45.636Z,3.08
2024-03-16T20:59:33.823Z,3.15
2024-03-16T21:02:21.097Z,2.90
2024-03-16T21:05:09.873Z,3.33
2024-03-16T21:07:57.203Z,3.30
2024-03-16T21:10:48.156Z,3.00
2024-03-16T21:13:38.177Z,3.10
2024-03-16T21:16:25.875Z,2.72
2024-03-16T21:19:13.388Z,2.40
2024-03-16T21:22:01.049Z,2.90
2024-03-16T21:24:48.889Z,3.00
2024-03-16T21:27:36.401Z,3.40
2024-03-16T21:30:23.460Z,2.72
2024-03-16T21:33:11.962Z,3.00
2024-03-16T21:35:59.465Z,3.10
2024-03-16T21:38:47.271Z,3.27
2024-03-16T21:41:35.016Z,3.33
2024-03-16T21:44:25.329Z,2.90
2024-03-16T21:47:11.522Z,3.02
2024-03-16T21:49:58.905Z,3.00
2024-03-16T21:52:47.869Z,3.10
2024-03-16T21:55:35.520Z,2.50
2024-03-16T21:58:24.041Z,3.10
2024-03-16T22:01:11.452Z,3.67
2024-03-16T22:03:58.727Z,4.15
2024-03-16T22:06:46.502Z,4.45
2024-03-16T22:09:34.218Z,3.52
2024-03-16T22:12:21.799Z,3.05
2024-03-16T22:15:09.383Z,2.50
2024-03-16T22:17:57.060Z,2.37
2024-03-16T22:20:44.868Z,2.62
2024-03-16T22:23:32.528Z,2.50
2024-03-16T22:26:20.392Z,2.58
2024-03-16T22:29:08.059Z,2.87
2024-03-16T22:31:56.451Z,3.22
2024-03-16T22:34:44.211Z,3.00
2024-03-16T22:37:31.716Z,2.90
2024-03-16T22:40:20.959Z,2.70
2024-03-16T22:43:17.048Z,2.33
2024-03-16T22:46:01.739Z,2.25
2024-03-16T22:48:48.946Z,2.42
2024-03-16T22:51:36.560Z,1.98
2024-03-16T22:54:24.325Z,2.83
2024-03-16T22:57:11.591Z,2.30
2024-03-16T22:59:59.087Z,2.40
2024-03-16T23:02:47.346Z,2.02
2024-03-16T23:05:34.824Z,2.40
2024-03-16T23:08:22.016Z,1.80
2024-03-16T23:11:09.620Z,1.95
2024-03-16T23:13:58.325Z,1.85
2024-03-16T23:16:45.664Z,2.05
2024-03-16T23:19:32.986Z,2.35
2024-03-16T23:22:20.285Z,1.92
2024-03-16T23:25:07.942Z,1.98
2024-03-16T23:27:55.984Z,2.10
2024-03-16T23:30:43.502Z,1.80
2024-03-16T23:33:31.670Z,1.70
2024-03-16T23:36:19.465Z,2.20
2024-03-16T23:39:08.380Z,2.27
2024-03-16T23:41:55.721Z,2.58
2024-03-16T23:44:43.481Z,2.27
2024-03-16T23:47:31.248Z,2.70
2024-03-16T23:50:18.731Z,2.45
2024-03-16T23:53:06.674Z,2.70
2024-03-16T23:55:54.808Z,2.22
2024-03-16T23:58:42.515Z,2.45
